createdAt,value
2019-05-03T00:00:57.626Z,11.80
2019-05-03T00:03:25.243Z,11.80
2019-05-03T00:05:53.195Z,11.70
2019-05-03T00:08:21.762Z,11.70
2019-05-03T00:10:49.182Z,11.60
2019-05-03T00:13:17.596Z,11.60
2019-05-03T00:16:03.130Z,11.60
2019-05-03T00:18:32.730Z,11.50
2019-05-03T00:20:59.503Z,11.50
2019-05-03T00:23:27.880Z,11.40
2019-05-03T00:25:56.305Z,11.40
2019-05-03T00:28:23.917Z,11.40
2019-05-03T00:30:52.291Z,11.40
2019-05-03T00:33:19.940Z,11.40
2019-05-03T00:35:47.552Z,11.40
2019-05-03T00:38:15.165Z,11.30
2019-05-03T00:40:42.827Z,11.30
2019-05-03T00:43:11.604Z,11.20
2019-05-03T00:45:38.065Z,11.20
2019-05-03T00:48:05.715Z,11.30
2019-05-03T00:50:33.330Z,11.30
2019-05-03T00:53:02.303Z,11.30
2019-05-03T00:55:28.599Z,11.20
2019-05-03T00:57:56.220Z,11.20
2019-05-03T01:00:23.829Z,11.20
2019-05-03T01:02:51.817Z,11.20
2019-05-03T01:05:19.096Z,11.10
2019-05-03T01:07:46.712Z,11.00
2019-05-03T01:10:14.361Z,10.90
2019-05-03T01:12:42.534Z,10.80
2019-05-03T01:15:28.386Z,10.70
2019-05-03T01:17:56.005Z,10.70
2019-05-03T01:20:23.620Z,10.60
2019-05-03T01:22:51.880Z,10.50
2019-05-03T01:25:29.186Z,10.60
2019-05-03T01:27:46.507Z,10.50
2019-05-03T01:30:14.201Z,10.50
2019-05-03T01:32:41.894Z,10.40
2019-05-03T01:35:12.152Z,10.40
2019-05-03T01:37:38.614Z,10.40
2019-05-03T01:40:06.225Z,10.40
2019-05-03T01:42:34.604Z,10.40
2019-05-03T01:45:03.507Z,10.30
2019-05-03T01:47:49.946Z,10.30
2019-05-03T01:50:20.313Z,10.30
2019-05-03T01:52:47.929Z,10.20
2019-05-03T01:55:16.057Z,10.20
2019-05-03T01:57:43.190Z,10.10
2019-05-03T02:00:11.767Z,10.00
2019-05-03T02:02:56.530Z,10.10
2019-05-03T02:05:24.144Z,10.10
2019-05-03T02:07:52.519Z,9.90
2019-05-03T02:10:22.599Z,9.90
2019-05-03T02:12:48.538Z,9.80
2019-05-03T02:15:16.152Z,9.80
2019-05-03T02:17:43.795Z,9.70
2019-05-03T02:20:12.580Z,9.80
2019-05-03T02:22:39.368Z,9.80
2019-05-03T02:25:07.013Z,9.70
2019-05-03T02:27:34.628Z,9.70
2019-05-03T02:30:02.977Z,9.60
2019-05-03T02:32:29.889Z,9.60
2019-05-03T02:34:57.507Z,9.50
2019-05-03T02:37:25.113Z,9.50
2019-05-03T02:39:53.198Z,9.50
2019-05-03T02:42:21.138Z,9.60
2019-05-03T02:44:49.508Z,9.60
2019-05-03T02:47:17.917Z,9.60
2019-05-03T02:49:45.683Z,9.60
2019-05-03T02:52:15.112Z,9.60
2019-05-03T02:54:40.794Z,9.50
2019-05-03T02:57:09.159Z,9.40
2019-05-03T02:59:37.544Z,9.40
2019-05-03T03:02:06.538Z,9.30
2019-05-03T03:04:35.303Z,9.30
2019-05-03T03:07:01.178Z,9.40
2019-05-03T03:09:29.221Z,9.40
2019-05-03T03:11:57.589Z,9.50
2019-05-03T03:14:25.841Z,9.50
2019-05-03T03:16:52.836Z,9.40
2019-05-03T03:19:20.510Z,9.40
2019-05-03T03:21:48.887Z,9.30
2019-05-03T03:24:17.470Z,9.20
2019-05-03T03:26:47.328Z,9.20
2019-05-03T03:29:12.520Z,9.20
2019-05-03T03:31:58.058Z,9.10
2019-05-03T03:34:28.345Z,9.10
2019-05-03T03:37:04.385Z,9.00
2019-05-03T03:39:25.717Z,9.00
2019-05-03T03:41:50.541Z,9.00
2019-05-03T03:44:20.961Z,8.90
2019-05-03T03:46:51.566Z,9.10
2019-05-03T03:49:19.179Z,9.00
2019-05-03T03:51:50.785Z,9.10
2019-05-03T03:54:18.436Z,9.10
2019-05-03T03:56:56.139Z,9.10
2019-05-03T03:59:15.386Z,9.00
2019-05-03T04:01:41.302Z,8.90
2019-05-03T04:04:08.902Z,8.80
2019-05-03T04:06:42.470Z,8.70
2019-05-03T04:09:10.109Z,8.70
2019-05-03T04:11:38.487Z,8.60
2019-05-03T04:14:12.630Z,8.50
2019-05-03T04:16:40.284Z,8.50
2019-05-03T04:19:10.723Z,8.50
2019-05-03T04:21:38.335Z,8.40
2019-05-03T04:24:06.285Z,8.40
2019-05-03T04:26:35.764Z,8.30
2019-05-03T04:29:05.096Z,8.30
2019-05-03T04:31:31.189Z,8.30
2019-05-03T04:33:58.857Z,8.30
2019-05-03T04:36:26.500Z,8.30
2019-05-03T04:38:56.161Z,8.30
2019-05-03T04:41:21.753Z,8.30
2019-05-03T04:43:49.362Z,8.50
2019-05-03T04:46:17.053Z,8.60
2019-05-03T04:48:45.434Z,8.60
2019-05-03T04:51:16.572Z,8.60
2019-05-03T04:53:41.509Z,8.50
2019-05-03T04:56:09.123Z,8.60
2019-05-03T04:58:37.490Z,8.60
2019-05-03T05:01:06.274Z,8.60
2019-05-03T05:03:35.845Z,8.60
2019-05-03T05:06:00.590Z,8.60
2019-05-03T05:08:28.988Z,8.70
2019-05-03T05:10:56.578Z,8.70
2019-05-03T05:13:24.997Z,8.80
2019-05-03T05:15:51.794Z,8.80
2019-05-03T05:18:19.373Z,8.80
2019-05-03T05:20:46.961Z,9.00
2019-05-03T05:23:15.617Z,9.10
2019-05-03T05:25:49.395Z,9.10
2019-05-03T05:28:19.787Z,9.10
2019-05-03T05:30:47.376Z,9.20
2019-05-03T05:33:21.530Z,9.40
2019-05-03T05:35:49.173Z,9.40
2019-05-03T05:38:16.765Z,9.40
2019-05-03T05:40:45.091Z,9.50
2019-05-03T05:43:12.004Z,9.50
2019-05-03T05:45:39.589Z,9.60
2019-05-03T05:48:09.885Z,9.70
2019-05-03T05:50:40.449Z,9.70
2019-05-03T05:53:08.034Z,9.80
2019-05-03T05:55:50.821Z,9.90
2019-05-03T05:58:25.749Z,9.90
2019-05-03T06:00:57.128Z,9.90
2019-05-03T06:03:25.307Z,10.00
2019-05-03T06:05:52.305Z,10.10
2019-05-03T06:08:20.811Z,10.10
2019-05-03T06:10:55.361Z,10.10
2019-05-03T06:13:22.262Z,10.30
2019-05-03T06:15:49.895Z,10.30
2019-05-03T06:18:17.483Z,10.40
2019-05-03T06:21:04.648Z,10.40
2019-05-03T06:23:39.999Z,10.60
2019-05-03T06:26:25.940Z,10.60
2019-05-03T06:28:54.490Z,10.60
2019-05-03T06:31:34.404Z,10.60
2019-05-03T06:34:01.206Z,10.70
2019-05-03T06:36:28.804Z,10.80
2019-05-03T06:38:58.502Z,10.90
2019-05-03T06:41:26.098Z,11.00
2019-05-03T06:43:55.238Z,11.10
2019-05-03T06:46:23.556Z,11.30
2019-05-03T06:48:48.951Z,11.40
2019-05-03T06:51:20.023Z,11.40
2019-05-03T06:53:47.608Z,11.60
2019-05-03T06:56:14.716Z,11.60
2019-05-03T06:58:40.127Z,11.90
2019-05-03T07:01:22.696Z,11.90
2019-05-03T07:03:54.783Z,12.10
2019-05-03T07:06:36.194Z,12.10
2019-05-03T07:08:54.960Z,12.10
2019-05-03T07:11:21.579Z,12.10
2019-05-03T07:13:49.217Z,12.10
2019-05-03T07:16:16.801Z,12.10
2019-05-03T07:18:45.423Z,12.10
2019-05-03T07:21:12.793Z,12.10
2019-05-03T07:23:40.384Z,12.10
2019-05-03T07:26:07.973Z,12.10
2019-05-03T07:28:46.334Z,12.10
2019-05-03T07:31:04.805Z,12.00
2019-05-03T07:33:34.723Z,12.00
2019-05-03T07:36:01.455Z,12.10
2019-05-03T07:38:29.045Z,12.10
2019-05-03T07:40:56.631Z,12.00
2019-05-03T07:43:24.997Z,12.00
2019-05-03T07:45:52.587Z,12.00
2019-05-03T07:48:20.179Z,12.00
2019-05-03T07:50:47.817Z,12.10
2019-05-03T07:53:15.402Z,12.10
2019-05-03T07:55:48.665Z,12.20
2019-05-03T07:58:16.298Z,12.20
2019-05-03T08:00:44.585Z,12.20
2019-05-03T08:03:11.476Z,12.20
2019-05-03T08:05:39.357Z,12.20
2019-05-03T08:08:06.944Z,12.20
2019-05-03T08:10:34.639Z,12.20
2019-05-03T08:13:02.175Z,12.20
2019-05-03T08:15:29.759Z,12.30
2019-05-03T08:17:57.367Z,12.30
2019-05-03T08:20:24.994Z,12.30
2019-05-03T08:22:54.609Z,12.30
2019-05-03T08:25:20.148Z,12.30
2019-05-03T08:27:47.773Z,12.40
2019-05-03T08:30:15.347Z,12.50
2019-05-03T08:33:01.087Z,12.50
2019-05-03T08:35:31.514Z,12.60
2019-05-03T08:37:59.089Z,12.70
2019-05-03T08:40:26.702Z,12.80
2019-05-03T08:42:55.000Z,12.80
2019-05-03T08:45:21.857Z,12.90
2019-05-03T08:47:49.474Z,13.00
2019-05-03T08:50:21.411Z,13.10
2019-05-03T08:52:45.181Z,13.10
2019-05-03T08:55:12.287Z,13.20
2019-05-03T08:57:39.864Z,13.20
2019-05-03T09:00:07.437Z,13.40
2019-05-03T09:02:35.089Z,13.50
2019-05-03T09:05:02.635Z,13.50
2019-05-03T09:07:30.210Z,13.60
2019-05-03T09:09:58.494Z,13.70
2019-05-03T09:12:26.067Z,13.80
2019-05-03T09:14:54.687Z,14.00
2019-05-03T09:17:22.067Z,14.20
2019-05-03T09:19:49.643Z,14.20
2019-05-03T09:22:17.227Z,14.20
2019-05-03T09:24:45.521Z,14.20
2019-05-03T09:27:12.420Z,14.20
2019-05-03T09:29:43.444Z,14.30
2019-05-03T09:32:07.614Z,14.40
2019-05-03T09:34:35.828Z,14.40
2019-05-03T09:37:04.775Z,14.40
2019-05-03T09:39:31.026Z,14.40
2019-05-03T09:41:58.616Z,14.40
2019-05-03T09:44:26.186Z,14.40
2019-05-03T09:46:54.988Z,14.40
2019-05-03T09:49:21.382Z,14.30
2019-05-03T09:51:48.957Z,14.30
2019-05-03T09:54:16.626Z,14.30
2019-05-03T09:56:59.187Z,14.40
2019-05-03T09:59:26.749Z,14.40
2019-05-03T10:01:55.102Z,14.50
2019-05-03T10:04:22.669Z,14.50
2019-05-03T10:06:50.293Z,14.50
2019-05-03T10:09:17.871Z,14.50
2019-05-03T10:11:46.238Z,14.60
2019-05-03T10:14:15.420Z,14.70
2019-05-03T10:16:59.079Z,14.80
2019-05-03T10:19:36.631Z,15.00
2019-05-03T10:21:54.521Z,15.10
2019-05-03T10:24:22.096Z,15.20
2019-05-03T10:26:50.116Z,15.20
2019-05-03T10:29:17.681Z,15.30
2019-05-03T10:31:47.722Z,15.50
2019-05-03T10:34:15.565Z,15.50
2019-05-03T10:36:42.931Z,15.60
2019-05-03T10:39:10.515Z,15.60
2019-05-03T10:41:38.495Z,15.70
2019-05-03T10:44:06.163Z,15.80
2019-05-03T10:46:34.562Z,16.00
2019-05-03T10:49:02.103Z,16.00
2019-05-03T10:51:29.679Z,16.00
2019-05-03T10:53:57.256Z,16.00
2019-05-03T10:56:31.131Z,16.10
2019-05-03T10:58:58.715Z,16.10
2019-05-03T11:01:32.072Z,16.20
2019-05-03T11:03:59.694Z,16.40
2019-05-03T11:06:27.270Z,16.40
2019-05-03T11:08:54.841Z,16.40
2019-05-03T11:11:22.537Z,16.50
2019-05-03T11:13:50.520Z,16.50
2019-05-03T11:16:17.890Z,16.60
2019-05-03T11:18:46.277Z,16.70
2019-05-03T11:21:14.412Z,16.70
2019-05-03T11:23:41.439Z,16.70
2019-05-03T11:26:09.108Z,16.70
2019-05-03T11:28:36.688Z,16.70
2019-05-03T11:31:07.100Z,16.70
2019-05-03T11:33:40.781Z,16.60
2019-05-03T11:36:11.221Z,16.60
2019-05-03T11:38:38.796Z,16.70
2019-05-03T11:41:06.445Z,16.70
2019-05-03T11:43:35.025Z,16.70
2019-05-03T11:46:01.603Z,16.70
2019-05-03T11:48:29.272Z,16.70
2019-05-03T11:50:56.821Z,16.70
2019-05-03T11:53:25.162Z,16.70
2019-05-03T11:55:52.410Z,16.80
2019-05-03T11:58:19.999Z,16.80
2019-05-03T12:00:47.572Z,16.90
2019-05-03T12:03:15.637Z,16.90
2019-05-03T12:05:42.779Z,16.90
2019-05-03T12:08:10.348Z,16.90
2019-05-03T12:10:52.980Z,16.90
2019-05-03T12:13:05.605Z,17.00
2019-05-03T12:15:35.094Z,17.00
2019-05-03T12:18:05.531Z,17.00
2019-05-03T12:20:30.047Z,17.00
2019-05-03T12:22:56.860Z,16.90
2019-05-03T12:25:26.140Z,16.90
2019-05-03T12:27:51.441Z,16.90
2019-05-03T12:30:19.026Z,16.80
2019-05-03T12:32:46.653Z,16.90
2019-05-03T12:35:15.356Z,17.00
2019-05-03T12:37:44.681Z,17.20
2019-05-03T12:40:12.307Z,17.30
2019-05-03T12:42:39.888Z,17.30
2019-05-03T12:45:07.521Z,17.40
2019-05-03T12:47:35.966Z,17.40
2019-05-03T12:50:05.361Z,17.50
2019-05-03T12:52:32.219Z,17.40
2019-05-03T12:54:59.963Z,17.40
2019-05-03T12:57:27.549Z,17.40
2019-05-03T12:59:58.754Z,17.50
2019-05-03T13:02:26.366Z,17.50
2019-05-03T13:04:55.398Z,17.50
2019-05-03T13:07:36.341Z,17.50
2019-05-03T13:10:05.294Z,17.50
2019-05-03T13:12:31.536Z,17.40
2019-05-03T13:14:59.187Z,17.50
2019-05-03T13:17:35.444Z,17.40
2019-05-03T13:20:11.621Z,17.40
2019-05-03T13:22:39.195Z,17.50
2019-05-03T13:25:06.773Z,17.50
2019-05-03T13:27:34.999Z,17.50
2019-05-03T13:30:02.464Z,17.50
2019-05-03T13:32:30.034Z,17.40
2019-05-03T13:34:57.654Z,17.40
2019-05-03T13:37:25.453Z,17.40
2019-05-03T13:39:52.817Z,17.30
2019-05-03T13:42:21.814Z,17.20
2019-05-03T13:44:49.390Z,17.20
2019-05-03T13:47:16.966Z,17.10
2019-05-03T13:49:44.848Z,17.00
2019-05-03T13:52:14.440Z,17.00
2019-05-03T13:54:40.544Z,16.90
2019-05-03T13:57:08.190Z,16.80
2019-05-03T13:59:35.763Z,16.80
2019-05-03T14:02:12.526Z,16.70
2019-05-03T14:04:31.381Z,16.60
2019-05-03T14:06:58.961Z,16.40
2019-05-03T14:09:26.543Z,16.30
2019-05-03T14:11:55.308Z,16.10
2019-05-03T14:14:21.744Z,16.00
2019-05-03T14:16:49.317Z,15.90
2019-05-03T14:19:16.952Z,15.70
2019-05-03T14:21:44.532Z,15.60
2019-05-03T14:24:12.192Z,15.40
2019-05-03T14:26:39.762Z,15.30
2019-05-03T14:29:07.350Z,15.20
2019-05-03T14:31:35.693Z,15.10
2019-05-03T14:34:05.740Z,15.10
2019-05-03T14:36:30.908Z,15.00
2019-05-03T14:38:58.485Z,14.90
2019-05-03T14:41:26.877Z,14.70
2019-05-03T14:43:55.681Z,14.70
2019-05-03T14:46:31.657Z,14.60
2019-05-03T14:48:49.704Z,14.50
2019-05-03T14:51:17.284Z,14.40
2019-05-03T14:53:45.309Z,14.30
2019-05-03T14:56:15.395Z,14.20
2019-05-03T14:59:00.845Z,14.20
2019-05-03T15:01:30.898Z,14.10
2019-05-03T15:03:58.470Z,14.00
2019-05-03T15:06:26.057Z,14.00
2019-05-03T15:08:54.744Z,14.00
2019-05-03T15:11:21.250Z,14.00
2019-05-03T15:13:48.830Z,14.00
2019-05-03T15:16:16.458Z,14.00
2019-05-03T15:18:45.413Z,14.00
2019-05-03T15:21:11.623Z,14.10
2019-05-03T15:23:39.588Z,14.20
2019-05-03T15:26:07.165Z,14.30
2019-05-03T15:28:35.574Z,14.40
2019-05-03T15:31:04.434Z,14.50
2019-05-03T15:33:29.944Z,14.50
2019-05-03T15:35:57.522Z,14.50
2019-05-03T15:38:25.979Z,14.60
2019-05-03T15:40:54.730Z,14.60
2019-05-03T15:43:28.545Z,14.70
2019-05-03T15:46:10.190Z,14.70
2019-05-03T15:48:41.421Z,14.80
2019-05-03T15:51:09.023Z,14.80
2019-05-03T15:53:36.676Z,14.80
2019-05-03T15:56:05.413Z,14.90
2019-05-03T15:58:31.828Z,14.90
2019-05-03T16:01:00.635Z,15.00
2019-05-03T16:03:28.207Z,14.90
2019-05-03T16:05:55.833Z,14.90
2019-05-03T16:08:24.770Z,14.90
2019-05-03T16:10:50.989Z,14.90
2019-05-03T16:13:18.562Z,14.90
2019-05-03T16:15:46.226Z,15.00
2019-05-03T16:18:14.866Z,14.90
2019-05-03T16:20:41.398Z,14.90
2019-05-03T16:23:09.054Z,14.90
2019-05-03T16:25:36.627Z,14.90
2019-05-03T16:28:07.111Z,14.90
2019-05-03T16:30:38.157Z,14.80
2019-05-03T16:33:06.504Z,14.80
2019-05-03T16:35:34.940Z,14.80
2019-05-03T16:38:01.711Z,14.80
2019-05-03T16:40:29.290Z,14.80
2019-05-03T16:42:56.870Z,14.90
2019-05-03T16:45:25.617Z,14.90
2019-05-03T16:47:52.063Z,14.90
2019-05-03T16:50:19.645Z,14.80
2019-05-03T16:52:47.337Z,14.80
2019-05-03T16:55:16.392Z,14.70
2019-05-03T16:57:44.337Z,14.70
2019-05-03T17:00:10.887Z,14.70
2019-05-03T17:02:38.472Z,14.60
2019-05-03T17:05:09.010Z,14.60
2019-05-03T17:07:36.661Z,14.50
2019-05-03T17:10:04.900Z,14.40
2019-05-03T17:12:31.845Z,14.30
2019-05-03T17:14:59.811Z,14.20
2019-05-03T17:17:27.354Z,14.10
2019-05-03T17:19:55.193Z,14.10
2019-05-03T17:22:22.548Z,14.20
2019-05-03T17:24:51.699Z,14.20
2019-05-03T17:27:17.705Z,14.20
2019-05-03T17:29:45.335Z,14.10
2019-05-03T17:32:12.911Z,14.00
2019-05-03T17:34:40.489Z,13.90
2019-05-03T17:37:08.115Z,13.90
2019-05-03T17:39:38.362Z,13.80
2019-05-03T17:42:25.341Z,13.70
2019-05-03T17:44:54.484Z,13.70
2019-05-03T17:47:20.048Z,13.60
2019-05-03T17:49:47.671Z,13.50
2019-05-03T17:52:15.277Z,13.50
2019-05-03T17:54:44.783Z,13.40
2019-05-03T17:57:15.019Z,13.40
2019-05-03T17:59:49.968Z,13.30
2019-05-03T18:02:23.146Z,13.20
2019-05-03T18:04:54.919Z,13.20
2019-05-03T18:07:30.731Z,13.20
2019-05-03T18:09:58.315Z,13.20
2019-05-03T18:12:25.897Z,13.20
2019-05-03T18:14:55.333Z,13.10
2019-05-03T18:17:40.950Z,13.00
2019-05-03T18:20:09.274Z,12.80
2019-05-03T18:22:36.873Z,12.80
2019-05-03T18:25:05.033Z,12.80
2019-05-03T18:27:32.070Z,12.70
2019-05-03T18:29:59.651Z,12.80
2019-05-03T18:32:27.233Z,12.70
2019-05-03T18:34:54.995Z,12.70
2019-05-03T18:37:25.785Z,12.70
2019-05-03T18:39:52.196Z,12.50
2019-05-03T18:42:30.695Z,12.60
2019-05-03T18:44:56.398Z,12.50
2019-05-03T18:47:25.160Z,12.50
2019-05-03T18:49:51.909Z,12.40
2019-05-03T18:52:19.499Z,12.40
2019-05-03T18:54:47.078Z,12.40
2019-05-03T18:57:15.603Z,12.50
2019-05-03T18:59:42.280Z,12.50
2019-05-03T19:02:09.860Z,12.60
2019-05-03T19:04:38.024Z,12.60
2019-05-03T19:07:07.206Z,12.50
2019-05-03T19:09:47.383Z,12.50
2019-05-03T19:12:15.425Z,12.40
2019-05-03T19:14:42.543Z,12.30
2019-05-03T19:17:28.206Z,12.30
2019-05-03T19:19:55.795Z,12.30
2019-05-03T19:22:24.978Z,12.20
2019-05-03T19:24:51.012Z,12.20
2019-05-03T19:27:18.588Z,12.20
2019-05-03T19:29:46.943Z,12.20
2019-05-03T19:32:15.007Z,12.20
2019-05-03T19:34:50.120Z,12.10
2019-05-03T19:37:09.719Z,12.10
2019-05-03T19:39:37.363Z,12.10
2019-05-03T19:42:04.935Z,12.10
2019-05-03T19:44:32.516Z,12.20
2019-05-03T19:47:00.493Z,12.20
2019-05-03T19:49:28.094Z,12.20
2019-05-03T19:51:55.684Z,12.30
2019-05-03T19:54:23.342Z,12.30
2019-05-03T19:56:50.924Z,12.30
2019-05-03T19:59:36.368Z,12.20
2019-05-03T20:02:04.537Z,12.20
2019-05-03T20:04:40.533Z,12.10
2019-05-03T20:07:26.111Z,12.00
2019-05-03T20:09:54.370Z,11.90
2019-05-03T20:12:21.267Z,11.80
2019-05-03T20:14:48.897Z,11.80
2019-05-03T20:17:16.474Z,11.80
2019-05-03T20:19:45.196Z,11.80
2019-05-03T20:22:12.026Z,11.80
2019-05-03T20:24:39.610Z,12.00
2019-05-03T20:27:07.203Z,12.00
2019-05-03T20:29:34.824Z,12.00
2019-05-03T20:32:02.409Z,12.00
2019-05-03T20:34:29.999Z,12.00
2019-05-03T20:36:57.622Z,11.90
2019-05-03T20:39:25.536Z,11.90
2019-05-03T20:41:54.875Z,11.90
2019-05-03T20:44:24.879Z,11.80
2019-05-03T20:47:09.521Z,11.80
2019-05-03T20:49:37.139Z,11.90
2019-05-03T20:52:04.731Z,11.90
2019-05-03T20:54:32.303Z,12.00
2019-05-03T20:56:59.922Z,12.00
2019-05-03T20:59:27.514Z,12.00
2019-05-03T21:01:55.095Z,11.90
2019-05-03T21:04:24.575Z,11.90
2019-05-03T21:06:50.337Z,11.80
2019-05-03T21:09:17.886Z,11.80
2019-05-03T21:11:45.518Z,11.80
2019-05-03T21:14:15.281Z,11.80
2019-05-03T21:16:46.460Z,11.70
2019-05-03T21:19:20.079Z,11.70
2019-05-03T21:21:47.663Z,11.60
2019-05-03T21:24:26.200Z,11.60
2019-05-03T21:26:54.701Z,11.50
2019-05-03T21:29:20.400Z,11.50
2019-05-03T21:31:48.061Z,11.50
2019-05-03T21:34:15.635Z,11.60
2019-05-03T21:36:45.195Z,11.60
2019-05-03T21:39:11.608Z,11.60
2019-05-03T21:41:39.184Z,11.50
2019-05-03T21:44:06.760Z,11.50
2019-05-03T21:46:34.382Z,11.50
2019-05-03T21:49:04.374Z,11.40
2019-05-03T21:51:30.300Z,11.40
2019-05-03T21:53:57.932Z,11.30
2019-05-03T21:56:25.515Z,11.30
2019-05-03T21:58:55.140Z,11.20
2019-05-03T22:01:21.963Z,11.20
2019-05-03T22:03:49.550Z,11.20
2019-05-03T22:06:17.894Z,11.10
2019-05-03T22:08:45.878Z,11.10
2019-05-03T22:11:14.829Z,11.10
2019-05-03T22:13:41.048Z,11.20
2019-05-03T22:16:15.499Z,11.20
2019-05-03T22:18:41.855Z,11.10
2019-05-03T22:21:09.439Z,11.10
2019-05-03T22:23:45.286Z,11.00
2019-05-03T22:26:11.096Z,11.00
2019-05-03T22:28:38.670Z,11.00
2019-05-03T22:31:07.055Z,11.10
2019-05-03T22:33:35.402Z,11.10
2019-05-03T22:36:08.712Z,11.10
2019-05-03T22:38:31.045Z,11.20
2019-05-03T22:40:58.627Z,11.30
2019-05-03T22:43:26.974Z,11.20
2019-05-03T22:45:55.064Z,11.20
2019-05-03T22:48:22.671Z,11.10
2019-05-03T22:50:50.261Z,11.10
2019-05-03T22:53:17.862Z,11.20
2019-05-03T22:55:45.438Z,11.10
2019-05-03T22:58:13.018Z,11.00
2019-05-03T23:00:40.843Z,10.90
2019-05-03T23:03:08.442Z,10.80
2019-05-03T23:05:37.264Z,10.70
2019-05-03T23:08:05.468Z,10.70
2019-05-03T23:10:31.608Z,10.60
2019-05-03T23:12:59.196Z,10.60
2019-05-03T23:15:26.810Z,10.50
2019-05-03T23:17:54.607Z,10.50
2019-05-03T23:20:27.939Z,10.50
2019-05-03T23:22:55.551Z,10.60
2019-05-03T23:25:24.870Z,10.60
2019-05-03T23:27:51.477Z,10.60
2019-05-03T23:30:19.132Z,10.50
2019-05-03T23:32:46.707Z,10.50
2019-05-03T23:35:14.289Z,10.50
2019-05-03T23:37:44.893Z,10.60
2019-05-03T23:40:10.537Z,10.60
2019-05-03T23:42:38.886Z,10.80
2019-05-03T23:45:06.508Z,10.80
2019-05-03T23:47:36.902Z,10.80
2019-05-03T23:50:07.806Z,10.70
2019-05-03T23:52:35.542Z,10.70
2019-05-03T23:55:05.781Z,10.60
2019-05-03T23:57:31.362Z,10.60
2019-05-03T23:59:59.742Z,10.60
